createdAt,value
2019-05-22T00:02:27.233Z,81.20
2019-05-22T00:05:17.058Z,80.30
2019-05-22T00:07:48.954Z,79.50
2019-05-22T00:10:25.437Z,79.30
2019-05-22T00:12:57.215Z,79.90
2019-05-22T00:15:29.758Z,80.30
2019-05-22T00:18:01.547Z,80.50
2019-05-22T00:20:31.801Z,80.90
2019-05-22T00:23:04.127Z,80.90
2019-05-22T00:25:35.721Z,80.60
2019-05-22T00:28:07.344Z,81.00
2019-05-22T00:30:38.914Z,80.90
2019-05-22T00:33:09.912Z,80.40
2019-05-22T00:35:41.559Z,80.50
2019-05-22T00:38:12.309Z,80.80
2019-05-22T00:40:46.768Z,80.60
2019-05-22T00:43:21.226Z,80.70
2019-05-22T00:45:52.718Z,80.90
2019-05-22T00:48:23.941Z,80.70
2019-05-22T00:51:05.483Z,80.80
2019-05-22T00:53:55.486Z,80.90
2019-05-22T00:56:37.158Z,80.40
2019-05-22T00:59:22.119Z,80.30
2019-05-22T01:01:54.405Z,80.20
2019-05-22T01:04:25.910Z,80.60
2019-05-22T01:06:57.983Z,80.90
2019-05-22T01:09:29.553Z,81.00
2019-05-22T01:12:00.780Z,81.00
2019-05-22T01:14:42.300Z,80.90
2019-05-22T01:17:02.830Z,80.00
2019-05-22T01:19:34.594Z,79.70
2019-05-22T01:22:06.486Z,79.50
2019-05-22T01:24:37.983Z,79.50
2019-05-22T01:27:10.056Z,79.70
2019-05-22T01:29:40.370Z,79.90
2019-05-22T01:32:20.914Z,80.20
2019-05-22T01:34:51.812Z,81.20
2019-05-22T01:37:22.443Z,80.60
2019-05-22T01:39:54.278Z,80.40
2019-05-22T01:42:26.915Z,80.30
2019-05-22T01:45:05.558Z,80.00
2019-05-22T01:47:43.001Z,79.70
2019-05-22T01:50:18.847Z,79.30
2019-05-22T01:52:48.701Z,79.50
2019-05-22T01:55:20.221Z,79.50
2019-05-22T01:57:51.342Z,79.90
2019-05-22T02:00:21.770Z,80.10
2019-05-22T02:02:52.408Z,79.90
2019-05-22T02:05:23.041Z,79.90
2019-05-22T02:07:54.490Z,79.90
2019-05-22T02:10:33.662Z,80.00
2019-05-22T02:13:03.531Z,80.00
2019-05-22T02:15:35.332Z,79.90
2019-05-22T02:18:11.039Z,80.20
2019-05-22T02:20:42.509Z,80.20
2019-05-22T02:23:12.666Z,80.30
2019-05-22T02:25:42.599Z,80.70
2019-05-22T02:28:12.624Z,80.50
2019-05-22T02:30:44.513Z,80.60
2019-05-22T02:33:14.467Z,80.50
2019-05-22T02:35:45.714Z,80.60
2019-05-22T02:38:16.963Z,80.50
2019-05-22T02:40:47.550Z,80.50
2019-05-22T02:43:18.752Z,80.60
2019-05-22T02:45:49.883Z,80.70
2019-05-22T02:48:21.402Z,80.80
2019-05-22T02:50:52.411Z,80.60
2019-05-22T02:53:22.741Z,80.30
2019-05-22T02:55:53.334Z,80.50
2019-05-22T02:58:24.440Z,80.80
2019-05-22T03:01:00.195Z,81.10
2019-05-22T03:03:32.263Z,81.50
2019-05-22T03:06:04.339Z,81.00
2019-05-22T03:08:54.302Z,81.20
2019-05-22T03:11:25.054Z,81.20
2019-05-22T03:13:59.785Z,81.10
2019-05-22T03:16:50.028Z,81.20
2019-05-22T03:19:32.555Z,80.70
2019-05-22T03:22:25.182Z,80.20
2019-05-22T03:24:56.857Z,80.00
2019-05-22T03:27:40.533Z,80.40
2019-05-22T03:30:22.280Z,80.90
2019-05-22T03:32:53.914Z,81.20
2019-05-22T03:35:25.991Z,81.70
2019-05-22T03:37:57.586Z,81.80
2019-05-22T03:40:28.889Z,82.00
2019-05-22T03:43:05.695Z,81.90
2019-05-22T03:45:36.227Z,82.20
2019-05-22T03:48:06.461Z,82.30
2019-05-22T03:50:36.763Z,82.10
2019-05-22T03:53:15.668Z,82.30
2019-05-22T03:55:46.552Z,82.40
2019-05-22T03:58:16.929Z,82.70
2019-05-22T04:00:47.523Z,82.90
2019-05-22T04:03:17.833Z,82.40
2019-05-22T04:05:48.889Z,82.00
2019-05-22T04:08:20.220Z,82.30
2019-05-22T04:10:59.186Z,82.60
2019-05-22T04:13:29.057Z,82.80
2019-05-22T04:16:00.635Z,82.70
2019-05-22T04:18:30.960Z,82.80
2019-05-22T04:21:01.655Z,83.30
2019-05-22T04:23:31.529Z,83.50
2019-05-22T04:26:01.854Z,83.50
2019-05-22T04:28:31.982Z,83.30
2019-05-22T04:31:02.513Z,83.20
2019-05-22T04:33:32.668Z,82.90
2019-05-22T04:36:03.073Z,82.90
2019-05-22T04:38:33.411Z,82.40
2019-05-22T04:41:04.643Z,82.90
2019-05-22T04:43:35.287Z,83.50
2019-05-22T04:46:06.521Z,83.60
2019-05-22T04:48:36.519Z,84.10
2019-05-22T04:51:25.376Z,84.20
2019-05-22T04:53:56.686Z,84.30
2019-05-22T04:56:26.609Z,84.00
2019-05-22T04:58:57.129Z,83.70
2019-05-22T05:01:28.361Z,83.30
2019-05-22T05:03:58.923Z,83.70
2019-05-22T05:06:30.482Z,83.80
2019-05-22T05:09:00.431Z,83.80
2019-05-22T05:11:30.666Z,84.10
2019-05-22T05:14:00.535Z,84.20
2019-05-22T05:16:30.386Z,84.20
2019-05-22T05:19:00.748Z,84.20
2019-05-22T05:21:31.038Z,84.10
2019-05-22T05:24:00.958Z,83.70
2019-05-22T05:26:32.134Z,83.80
2019-05-22T05:29:02.130Z,84.10
2019-05-22T05:31:32.358Z,84.20
2019-05-22T05:34:08.630Z,84.30
2019-05-22T05:36:39.234Z,84.50
2019-05-22T05:39:34.039Z,84.80
2019-05-22T05:42:03.952Z,84.40
2019-05-22T05:44:35.638Z,84.60
2019-05-22T05:47:06.277Z,84.00
2019-05-22T05:49:36.126Z,84.20
2019-05-22T05:52:07.321Z,84.30
2019-05-22T05:54:37.914Z,84.80
2019-05-22T05:57:38.494Z,84.70
2019-05-22T06:00:11.341Z,85.00
2019-05-22T06:02:55.732Z,84.90
2019-05-22T06:05:13.157Z,84.90
2019-05-22T06:07:43.011Z,85.00
2019-05-22T06:10:29.838Z,85.20
2019-05-22T06:13:00.552Z,85.40
2019-05-22T06:15:47.622Z,85.00
2019-05-22T06:18:34.713Z,84.90
2019-05-22T06:21:06.266Z,85.40
2019-05-22T06:23:44.551Z,85.00
2019-05-22T06:26:18.266Z,84.90
2019-05-22T06:28:48.093Z,85.20
2019-05-22T06:31:44.178Z,84.80
2019-05-22T06:34:14.034Z,84.70
2019-05-22T06:36:44.253Z,83.70
2019-05-22T06:39:14.490Z,84.40
2019-05-22T06:41:45.413Z,84.50
2019-05-22T06:44:31.441Z,84.10
2019-05-22T06:47:01.609Z,83.80
2019-05-22T06:49:35.132Z,84.00
2019-05-22T06:52:06.149Z,84.60
2019-05-22T06:54:36.677Z,85.40
2019-05-22T06:57:09.010Z,84.90
2019-05-22T06:59:39.603Z,84.80
2019-05-22T07:02:10.449Z,85.40
2019-05-22T07:04:40.658Z,84.20
2019-05-22T07:07:12.542Z,84.40
2019-05-22T07:09:44.609Z,84.70
2019-05-22T07:12:15.736Z,83.20
2019-05-22T07:15:02.533Z,83.50
2019-05-22T07:17:32.694Z,83.00
2019-05-22T07:20:04.649Z,82.80
2019-05-22T07:22:34.907Z,82.20
2019-05-22T07:25:08.191Z,82.20
2019-05-22T07:27:37.445Z,81.80
2019-05-22T07:30:07.971Z,81.70
2019-05-22T07:32:38.145Z,82.10
2019-05-22T07:35:08.581Z,82.00
2019-05-22T07:37:40.962Z,82.00
2019-05-22T07:40:11.258Z,81.40
2019-05-22T07:42:41.135Z,80.00
2019-05-22T07:45:11.374Z,80.30
2019-05-22T07:47:43.028Z,79.40
2019-05-22T07:50:13.441Z,80.30
2019-05-22T07:52:43.376Z,79.00
2019-05-22T07:55:13.667Z,79.20
2019-05-22T07:57:43.513Z,80.00
2019-05-22T08:00:13.701Z,79.80
2019-05-22T08:02:44.439Z,78.30
2019-05-22T08:05:14.830Z,78.70
2019-05-22T08:07:44.915Z,78.50
2019-05-22T08:10:15.962Z,78.70
2019-05-22T08:12:45.814Z,78.80
2019-05-22T08:15:16.239Z,78.00
2019-05-22T08:17:46.099Z,79.00
2019-05-22T08:20:15.965Z,75.80
2019-05-22T08:22:46.621Z,77.00
2019-05-22T08:25:16.571Z,76.50
2019-05-22T08:27:46.785Z,78.40
2019-05-22T08:30:17.110Z,76.10
2019-05-22T08:32:47.406Z,74.60
2019-05-22T08:35:17.290Z,73.90
2019-05-22T08:37:47.593Z,72.80
2019-05-22T08:40:19.412Z,75.00
2019-05-22T08:42:50.135Z,70.80
2019-05-22T08:45:21.637Z,72.70
2019-05-22T08:47:51.574Z,72.00
2019-05-22T08:50:24.057Z,70.70
2019-05-22T08:52:54.011Z,71.10
2019-05-22T08:55:25.630Z,70.10
2019-05-22T08:57:55.750Z,68.50
2019-05-22T09:00:27.048Z,69.90
2019-05-22T09:02:57.294Z,70.50
2019-05-22T09:05:27.174Z,66.20
2019-05-22T09:07:57.147Z,63.40
2019-05-22T09:10:27.141Z,65.00
2019-05-22T09:12:57.366Z,64.20
2019-05-22T09:15:28.787Z,62.20
2019-05-22T09:17:59.702Z,62.90
2019-05-22T09:20:30.344Z,63.00
2019-05-22T09:23:00.682Z,62.00
2019-05-22T09:25:31.606Z,61.20
2019-05-22T09:28:01.992Z,61.40
2019-05-22T09:30:31.929Z,60.20
2019-05-22T09:33:02.073Z,60.20
2019-05-22T09:35:32.602Z,60.90
2019-05-22T09:38:02.916Z,59.70
2019-05-22T09:40:33.439Z,59.40
2019-05-22T09:43:04.187Z,59.70
2019-05-22T09:45:34.286Z,57.60
2019-05-22T09:48:05.706Z,57.90
2019-05-22T09:50:37.086Z,56.90
2019-05-22T09:53:07.860Z,55.70
2019-05-22T09:55:37.842Z,56.10
2019-05-22T09:58:07.883Z,55.00
2019-05-22T10:00:38.070Z,53.90
2019-05-22T10:03:08.787Z,54.90
2019-05-22T10:05:38.808Z,53.50
2019-05-22T10:08:08.911Z,54.90
2019-05-22T10:10:39.142Z,54.80
2019-05-22T10:13:09.166Z,53.10
2019-05-22T10:15:39.019Z,53.10
2019-05-22T10:18:09.241Z,55.30
2019-05-22T10:20:39.541Z,55.80
2019-05-22T10:23:15.478Z,55.60
2019-05-22T10:25:41.754Z,56.00
2019-05-22T10:28:11.979Z,56.30
2019-05-22T10:30:41.825Z,56.00
2019-05-22T10:33:11.954Z,56.40
2019-05-22T10:35:41.917Z,54.90
2019-05-22T10:38:11.802Z,54.60
2019-05-22T10:40:41.658Z,55.30
2019-05-22T10:43:11.871Z,53.70
2019-05-22T10:45:42.189Z,55.10
2019-05-22T10:48:12.130Z,55.50
2019-05-22T10:50:42.006Z,55.50
2019-05-22T10:53:12.316Z,56.90
2019-05-22T10:55:42.565Z,57.40
2019-05-22T10:58:12.797Z,55.40
2019-05-22T11:00:42.711Z,57.10
2019-05-22T11:03:14.156Z,56.20
2019-05-22T11:05:45.998Z,56.80
2019-05-22T11:08:15.933Z,56.10
2019-05-22T11:10:46.307Z,58.20
2019-05-22T11:13:16.427Z,57.90
2019-05-22T11:15:46.354Z,56.00
2019-05-22T11:18:16.206Z,55.90
2019-05-22T11:20:46.078Z,58.20
2019-05-22T11:23:15.991Z,56.40
2019-05-22T11:25:45.866Z,56.70
2019-05-22T11:28:15.788Z,56.00
2019-05-22T11:30:45.727Z,54.90
2019-05-22T11:33:15.626Z,55.90
2019-05-22T11:35:45.721Z,54.80
2019-05-22T11:38:15.558Z,54.20
2019-05-22T11:40:45.753Z,54.80
2019-05-22T11:43:15.980Z,55.10
2019-05-22T11:45:45.999Z,56.00
2019-05-22T11:48:16.046Z,56.10
2019-05-22T11:50:46.469Z,55.80
2019-05-22T11:53:16.331Z,54.00
2019-05-22T11:55:46.693Z,54.40
2019-05-22T11:58:17.041Z,56.30
2019-05-22T12:00:47.419Z,55.60
2019-05-22T12:03:17.641Z,54.80
2019-05-22T12:05:48.086Z,56.00
2019-05-22T12:08:17.999Z,55.30
2019-05-22T12:10:48.117Z,53.40
2019-05-22T12:13:18.040Z,54.80
2019-05-22T12:15:47.961Z,54.40
2019-05-22T12:18:18.042Z,54.60
2019-05-22T12:20:48.157Z,53.70
2019-05-22T12:23:18.031Z,55.70
2019-05-22T12:25:47.884Z,52.90
2019-05-22T12:28:18.224Z,52.20
2019-05-22T12:30:48.071Z,53.90
2019-05-22T12:33:18.342Z,53.50
2019-05-22T12:35:49.402Z,53.20
2019-05-22T12:38:19.612Z,52.90
2019-05-22T12:40:50.245Z,52.60
2019-05-22T12:43:20.253Z,53.40
2019-05-22T12:45:50.297Z,53.40
2019-05-22T12:48:20.145Z,54.50
2019-05-22T12:50:50.475Z,54.30
2019-05-22T12:53:20.691Z,53.00
2019-05-22T12:55:50.551Z,55.20
2019-05-22T12:58:20.405Z,54.30
2019-05-22T13:00:50.703Z,54.70
2019-05-22T13:03:20.835Z,54.10
2019-05-22T13:05:51.823Z,53.30
2019-05-22T13:08:21.862Z,54.90
2019-05-22T13:10:53.220Z,54.20
2019-05-22T13:13:23.756Z,54.50
2019-05-22T13:15:54.064Z,54.20
2019-05-22T13:18:24.290Z,54.10
2019-05-22T13:20:54.228Z,55.10
2019-05-22T13:23:24.899Z,54.30
2019-05-22T13:25:55.109Z,55.30
2019-05-22T13:28:26.093Z,55.80
2019-05-22T13:30:56.615Z,56.40
2019-05-22T13:33:27.843Z,57.00
2019-05-22T13:35:57.971Z,56.20
2019-05-22T13:38:27.838Z,56.90
2019-05-22T13:40:57.785Z,57.30
2019-05-22T13:43:28.879Z,57.40
2019-05-22T13:45:58.802Z,57.10
2019-05-22T13:48:28.947Z,55.40
2019-05-22T13:50:59.849Z,56.60
2019-05-22T13:53:30.158Z,58.00
2019-05-22T13:56:00.785Z,56.80
2019-05-22T13:58:30.936Z,55.70
2019-05-22T14:01:00.783Z,56.70
2019-05-22T14:03:31.146Z,56.70
2019-05-22T14:06:01.593Z,55.70
2019-05-22T14:08:31.456Z,56.30
2019-05-22T14:11:01.483Z,56.00
2019-05-22T14:13:31.327Z,56.90
2019-05-22T14:16:01.188Z,56.90
2019-05-22T14:18:31.064Z,56.60
2019-05-22T14:21:01.010Z,56.30
2019-05-22T14:23:30.943Z,56.10
2019-05-22T14:26:00.869Z,57.00
2019-05-22T14:28:31.303Z,56.00
2019-05-22T14:31:01.163Z,56.10
2019-05-22T14:33:31.117Z,56.60
2019-05-22T14:36:02.386Z,55.90
2019-05-22T14:38:32.822Z,55.60
2019-05-22T14:41:03.056Z,55.50
2019-05-22T14:43:32.931Z,55.50
2019-05-22T14:46:03.061Z,55.10
2019-05-22T14:48:33.772Z,55.70
2019-05-22T14:51:04.114Z,56.60
2019-05-22T14:53:35.028Z,57.20
2019-05-22T14:56:10.577Z,57.70
2019-05-22T14:58:39.273Z,56.40
2019-05-22T15:01:10.098Z,57.70
2019-05-22T15:03:40.575Z,57.50
2019-05-22T15:06:10.465Z,57.30
2019-05-22T15:08:40.322Z,57.70
2019-05-22T15:11:10.293Z,57.30
2019-05-22T15:13:40.479Z,57.40
2019-05-22T15:16:10.371Z,56.80
2019-05-22T15:18:40.353Z,56.90
2019-05-22T15:21:11.846Z,56.70
2019-05-22T15:23:42.084Z,56.10
2019-05-22T15:26:11.990Z,56.40
2019-05-22T15:28:42.026Z,56.60
2019-05-22T15:31:11.913Z,56.80
2019-05-22T15:33:42.220Z,57.10
2019-05-22T15:36:14.317Z,56.70
2019-05-22T15:38:44.470Z,56.20
2019-05-22T15:41:15.046Z,57.30
2019-05-22T15:43:51.244Z,57.30
2019-05-22T15:46:17.422Z,58.30
2019-05-22T15:48:48.050Z,57.70
2019-05-22T15:51:21.313Z,57.70
2019-05-22T15:53:50.469Z,58.60
2019-05-22T15:56:20.521Z,57.80
2019-05-22T15:58:51.396Z,57.40
2019-05-22T16:01:21.981Z,56.90
2019-05-22T16:03:51.910Z,56.90
2019-05-22T16:06:23.566Z,56.00
2019-05-22T16:08:53.486Z,56.10
2019-05-22T16:11:23.641Z,56.30
2019-05-22T16:13:54.477Z,56.30
2019-05-22T16:16:24.931Z,55.50
2019-05-22T16:18:55.166Z,55.20
2019-05-22T16:21:26.076Z,57.20
2019-05-22T16:23:57.096Z,56.80
2019-05-22T16:26:27.611Z,57.10
2019-05-22T16:28:57.467Z,55.50
2019-05-22T16:31:27.335Z,56.20
2019-05-22T16:33:57.195Z,56.20
2019-05-22T16:36:27.391Z,56.80
2019-05-22T16:38:57.335Z,57.50
2019-05-22T16:41:27.645Z,57.70
2019-05-22T16:43:57.535Z,57.80
2019-05-22T16:46:28.059Z,57.00
2019-05-22T16:48:58.329Z,57.90
2019-05-22T16:51:28.921Z,57.70
2019-05-22T16:54:02.040Z,57.90
2019-05-22T16:56:32.171Z,58.90
2019-05-22T16:59:02.399Z,58.70
2019-05-22T17:01:32.468Z,58.30
2019-05-22T17:04:03.125Z,59.10
2019-05-22T17:06:33.542Z,59.20
2019-05-22T17:09:05.306Z,59.10
2019-05-22T17:11:35.339Z,59.10
2019-05-22T17:14:06.930Z,59.60
2019-05-22T17:16:39.199Z,60.00
2019-05-22T17:19:25.794Z,58.50
2019-05-22T17:21:40.646Z,59.00
2019-05-22T17:24:10.718Z,59.80
2019-05-22T17:26:41.052Z,60.20
2019-05-22T17:29:11.170Z,60.60
2019-05-22T17:31:41.605Z,61.70
2019-05-22T17:34:29.745Z,62.00
2019-05-22T17:36:59.678Z,63.00
2019-05-22T17:39:31.510Z,63.50
2019-05-22T17:42:01.905Z,64.90
2019-05-22T17:44:32.573Z,66.50
2019-05-22T17:47:06.189Z,67.70
2019-05-22T17:49:34.815Z,67.30
2019-05-22T17:52:05.448Z,66.80
2019-05-22T17:54:35.333Z,69.20
2019-05-22T17:57:05.568Z,69.30
2019-05-22T17:59:36.502Z,66.80
2019-05-22T18:02:07.994Z,68.30
2019-05-22T18:04:38.211Z,69.60
2019-05-22T18:07:08.934Z,69.00
2019-05-22T18:09:38.791Z,69.90
2019-05-22T18:12:08.911Z,72.30
2019-05-22T18:14:38.893Z,74.50
2019-05-22T18:17:09.017Z,75.00
2019-05-22T18:19:38.862Z,74.00
2019-05-22T18:22:10.417Z,78.10
2019-05-22T18:24:40.642Z,71.60
2019-05-22T18:27:10.479Z,70.50
2019-05-22T18:29:40.769Z,71.30
2019-05-22T18:32:11.576Z,72.80
2019-05-22T18:34:41.821Z,72.60
2019-05-22T18:37:11.662Z,74.50
2019-05-22T18:39:41.578Z,70.90
2019-05-22T18:42:12.817Z,71.30
2019-05-22T18:44:43.024Z,72.50
2019-05-22T18:47:12.871Z,73.70
2019-05-22T18:49:42.723Z,73.30
2019-05-22T18:52:12.751Z,73.90
2019-05-22T18:54:42.594Z,75.90
2019-05-22T18:57:12.802Z,78.90
2019-05-22T18:59:42.735Z,80.50
2019-05-22T19:02:14.063Z,80.90
2019-05-22T19:04:44.007Z,79.90
2019-05-22T19:07:14.913Z,75.00
2019-05-22T19:09:44.776Z,74.10
2019-05-22T19:12:14.952Z,75.00
2019-05-22T19:14:45.176Z,74.80
2019-05-22T19:17:15.332Z,72.10
2019-05-22T19:19:46.139Z,72.60
2019-05-22T19:22:16.759Z,73.00
2019-05-22T19:24:46.983Z,73.10
2019-05-22T19:27:16.856Z,72.50
2019-05-22T19:29:46.784Z,71.40
2019-05-22T19:32:17.343Z,71.80
2019-05-22T19:34:47.217Z,70.90
2019-05-22T19:37:17.130Z,69.70
2019-05-22T19:39:47.399Z,69.80
2019-05-22T19:42:17.473Z,68.70
2019-05-22T19:44:47.336Z,68.70
2019-05-22T19:47:17.468Z,68.90
2019-05-22T19:49:47.502Z,69.70
2019-05-22T19:52:22.060Z,70.10
2019-05-22T19:54:50.317Z,73.60
2019-05-22T19:57:20.418Z,72.60
2019-05-22T19:59:50.275Z,75.00
2019-05-22T20:02:20.250Z,72.60
2019-05-22T20:04:50.157Z,71.10
2019-05-22T20:07:21.855Z,72.30
2019-05-22T20:09:52.300Z,72.40
2019-05-22T20:12:25.002Z,72.60
2019-05-22T20:14:54.307Z,72.60
2019-05-22T20:17:25.360Z,72.90
2019-05-22T20:19:56.264Z,73.00
2019-05-22T20:22:26.999Z,72.60
2019-05-22T20:24:57.814Z,72.70
2019-05-22T20:27:28.157Z,72.60
2019-05-22T20:29:58.002Z,72.70
2019-05-22T20:32:28.325Z,73.40
2019-05-22T20:34:58.238Z,73.60
2019-05-22T20:37:28.171Z,74.90
2019-05-22T20:39:58.026Z,74.60
2019-05-22T20:42:28.469Z,73.50
2019-05-22T20:44:58.691Z,73.60
2019-05-22T20:47:29.538Z,73.40
2019-05-22T20:50:00.274Z,73.50
2019-05-22T20:52:30.868Z,74.10
2019-05-22T20:55:02.381Z,74.00
2019-05-22T20:57:34.003Z,74.90
2019-05-22T21:00:10.070Z,75.00
2019-05-22T21:02:40.423Z,75.70
2019-05-22T21:05:12.039Z,77.00
2019-05-22T21:07:46.394Z,75.90
2019-05-22T21:10:16.597Z,76.10
2019-05-22T21:12:46.518Z,76.70
2019-05-22T21:15:17.124Z,77.00
2019-05-22T21:17:47.005Z,77.30
2019-05-22T21:20:18.490Z,77.50
2019-05-22T21:22:49.044Z,77.20
2019-05-22T21:25:19.565Z,77.20
2019-05-22T21:27:49.710Z,77.40
2019-05-22T21:30:20.327Z,78.10
2019-05-22T21:32:50.199Z,78.00
2019-05-22T21:35:21.725Z,76.60
2019-05-22T21:37:51.975Z,76.40
2019-05-22T21:40:22.503Z,76.80
2019-05-22T21:42:52.345Z,77.20
2019-05-22T21:45:23.275Z,77.70
2019-05-22T21:47:53.327Z,77.80
2019-05-22T21:50:23.846Z,78.60
2019-05-22T21:52:53.724Z,79.10
2019-05-22T21:55:24.749Z,80.50
2019-05-22T21:57:54.610Z,79.90
2019-05-22T22:00:41.573Z,78.10
2019-05-22T22:03:13.218Z,75.80
2019-05-22T22:05:45.246Z,74.40
2019-05-22T22:08:15.469Z,74.20
2019-05-22T22:10:45.346Z,74.10
2019-05-22T22:13:15.578Z,73.40
2019-05-22T22:15:46.531Z,73.70
2019-05-22T22:18:18.029Z,73.70
2019-05-22T22:20:48.178Z,72.90
2019-05-22T22:23:19.126Z,72.50
2019-05-22T22:25:50.371Z,72.20
2019-05-22T22:28:20.785Z,71.90
2019-05-22T22:30:52.327Z,71.90
2019-05-22T22:33:25.610Z,72.30
2019-05-22T22:35:55.173Z,72.40
2019-05-22T22:38:28.913Z,70.50
2019-05-22T22:40:59.362Z,69.50
2019-05-22T22:43:31.294Z,69.70
2019-05-22T22:46:09.093Z,69.00
2019-05-22T22:48:40.281Z,68.80
2019-05-22T22:51:12.709Z,68.90
2019-05-22T22:53:43.767Z,69.60
2019-05-22T22:56:14.139Z,69.60
2019-05-22T22:58:44.849Z,70.20
2019-05-22T23:01:25.703Z,70.60
2019-05-22T23:03:56.801Z,71.00
2019-05-22T23:06:28.530Z,70.90
2019-05-22T23:08:58.472Z,71.60
2019-05-22T23:11:28.703Z,71.60
2019-05-22T23:13:59.101Z,70.60
2019-05-22T23:16:29.049Z,71.80
2019-05-22T23:19:15.935Z,71.70
2019-05-22T23:21:46.540Z,72.10
2019-05-22T23:24:16.772Z,71.00
2019-05-22T23:26:47.606Z,71.20
2019-05-22T23:29:18.150Z,72.40
2019-05-22T23:31:48.684Z,72.80
2019-05-22T23:34:19.111Z,73.60
2019-05-22T23:36:49.476Z,74.00
2019-05-22T23:39:20.967Z,73.50
2019-05-22T23:41:51.928Z,73.70
2019-05-22T23:44:23.455Z,74.00
2019-05-22T23:46:54.007Z,74.20
2019-05-22T23:49:24.767Z,74.60
2019-05-22T23:51:54.614Z,74.60
2019-05-22T23:54:24.470Z,73.60
2019-05-22T23:56:54.404Z,73.30
2019-05-22T23:59:24.250Z,72.20
